Terminal Aerodrome Forecast
Issued by NWS Wakefield, VA

Home | Current Version | Previous Version | Text Only | Print | Product List | Glossary On
Versions: 1 2 3 4 5 6 7 8 9 10 11 12 13 14
000
FTUS41 KAKQ 230500
TAFECG
TAF
KECG 230528Z 2306/2406 02004KT P6SM SCT012 BKN100
      TEMPO 2306/2310 BKN012
     FM231000 04005KT 4SM BR OVC020
     FM231300 06008KT P6SM BKN040
     FM240000 05007KT P6SM BKN020=

USA.gov is the U.S. government's official web portal to all federal, state and local government web resources and services.